Time;durP1;ratioP1;P1;durP2;ratioP2;P2;SDS_P1;SDS_P2;PMS_P1;PMS_P2;Temp;Humidity;BMP_temperature;BMP_pressure;BME280_temperature;BME280_humidity;BME280_pressure;Samples;Min_cycle;Max_cycle;Signal;HPM_P1;HPM_P2
2021/11/28 00:02:26;;;;;;;95.80;44.10;;;;;;;-0.24;85.56;98396.31;103645;1317;22795;-59
2021/11/28 00:04:58;;;;;;;106.40;49.30;;;;;;;-0.24;85.57;98393.09;103176;1318;22590;-58
2021/11/28 00:07:43;;;;;;;93.30;45.70;;;;;;;-0.23;85.58;98391.89;102634;1316;24317;-60
2021/11/28 00:10:19;;;;;;;100.70;46.00;;;;;;;-0.23;85.47;98384.13;102766;1315;22756;-60
2021/11/28 00:13:01;;;;;;;94.90;42.60;;;;;;;-0.24;85.51;98376.81;102753;1313;25342;-59
2021/11/28 00:15:33;;;;;;;93.00;44.30;;;;;;;-0.25;85.47;98372.52;102603;1313;24294;-59
2021/11/28 00:18:04;;;;;;;103.40;48.50;;;;;;;-0.27;85.50;98372.75;102696;1315;22735;-59
2021/11/28 00:20:35;;;;;;;97.10;46.00;;;;;;;-0.29;85.46;98377.40;102755;1312;24368;-60
2021/11/28 00:23:06;;;;;;;95.70;45.60;;;;;;;-0.32;85.42;98377.52;102948;1316;22747;-60
2021/11/28 00:25:37;;;;;;;87.90;40.80;;;;;;;-0.34;85.45;98373.67;102741;1313;22665;-59
2021/11/28 00:28:12;;;;;;;88.40;41.70;;;;;;;-0.36;85.48;98370.67;102622;1313;25325;-58
2021/11/28 00:30:43;;;;;;;96.00;42.20;;;;;;;-0.37;85.44;98366.64;102800;1313;22578;-59
2021/11/28 00:33:14;;;;;;;92.90;42.10;;;;;;;-0.38;85.43;98371.48;102671;1316;25326;-59
2021/11/28 00:35:46;;;;;;;97.80;42.90;;;;;;;-0.39;85.35;98377.07;102753;1316;22600;-59
2021/11/28 00:38:17;;;;;;;92.20;41.40;;;;;;;-0.39;85.45;98381.13;102638;1315;24028;-57
2021/11/28 00:40:48;;;;;;;89.10;40.70;;;;;;;-0.38;85.34;98377.27;102648;1313;22570;-60
2021/11/28 00:43:19;;;;;;;97.30;41.60;;;;;;;-0.39;85.27;98374.86;102590;1320;22593;-59
2021/11/28 00:45:50;;;;;;;84.00;40.10;;;;;;;-0.40;85.35;98379.23;102650;1315;22667;-61
2021/11/28 00:48:24;;;;;;;81.60;37.20;;;;;;;-0.40;85.41;98388.33;102672;1315;25667;-59
2021/11/28 00:51:11;;;;;;;82.00;36.00;;;;;;;-0.40;85.41;98388.41;102706;1320;22640;-59
2021/11/28 00:53:42;;;;;;;83.20;36.90;;;;;;;-0.42;85.29;98388.55;102634;1316;22578;-61
2021/11/28 00:56:13;;;;;;;79.70;35.10;;;;;;;-0.45;85.36;98387.52;102686;1316;24296;-61
2021/11/28 00:58:46;;;;;;;81.50;33.20;;;;;;;-0.47;85.27;98385.94;102716;1315;22580;-62
2021/11/28 01:01:19;;;;;;;76.00;33.20;;;;;;;-0.48;85.40;98375.09;103232;1313;22667;-60
2021/11/28 01:03:50;;;;;;;76.20;34.40;;;;;;;-0.49;85.42;98374.42;103191;1313;22580;-59
2021/11/28 01:06:21;;;;;;;113.50;49.00;;;;;;;-0.49;85.40;98382.40;103139;1311;22611;-60
2021/11/28 01:08:52;;;;;;;101.10;49.10;;;;;;;-0.50;85.27;98392.05;103153;1316;23138;-60
2021/11/28 01:11:24;;;;;;;101.30;45.40;;;;;;;-0.52;85.34;98391.30;103179;1312;22593;-61
2021/11/28 01:13:55;;;;;;;98.70;44.90;;;;;;;-0.54;85.24;98390.56;103132;1312;25524;-59
2021/11/28 01:16:27;;;;;;;102.50;46.00;;;;;;;-0.55;85.38;98394.84;103024;1313;24317;-60
2021/11/28 01:18:57;;;;;;;117.70;49.40;;;;;;;-0.57;85.34;98397.02;103003;1313;22632;-59
2021/11/28 01:21:29;;;;;;;113.00;45.60;;;;;;;-0.58;85.31;98398.63;102818;1312;22650;-61
2021/11/28 01:24:00;;;;;;;113.00;46.90;;;;;;;-0.61;85.33;98416.84;103075;1310;22631;-59
2021/11/28 01:26:31;;;;;;;100.90;43.90;;;;;;;-0.63;85.53;98418.02;103297;1312;25545;-58
2021/11/28 01:29:03;;;;;;;98.50;41.00;;;;;;;-0.65;85.37;98411.12;103093;1312;22596;-62
2021/11/28 01:31:34;;;;;;;109.20;43.10;;;;;;;-0.66;85.46;98420.39;103195;1312;25371;-59
2021/11/28 01:34:05;;;;;;;91.00;40.30;;;;;;;-0.67;85.37;98424.27;102966;1312;25286;-59
2021/11/28 01:36:37;;;;;;;93.30;41.50;;;;;;;-0.68;85.47;98421.18;102973;1313;22904;-58
2021/11/28 01:39:10;;;;;;;82.60;38.50;;;;;;;-0.68;85.52;98429.05;103025;1317;22746;-60
2021/11/28 01:41:41;;;;;;;84.30;38.50;;;;;;;-0.68;85.52;98423.43;102964;1312;24248;-59
2021/11/28 01:44:12;;;;;;;83.90;37.30;;;;;;;-0.70;85.34;98419.30;103053;1312;22666;-60
2021/11/28 01:46:44;;;;;;;82.80;39.20;;;;;;;-0.73;85.29;98424.87;103539;1297;25567;-58
2021/11/28 01:49:15;;;;;;;86.40;38.50;;;;;;;-0.73;85.43;98418.92;103043;1318;23195;-55
2021/11/28 01:51:46;;;;;;;90.30;39.70;;;;;;;-0.72;85.49;98412.88;102911;1312;22636;-56
2021/11/28 01:54:19;;;;;;;82.70;36.90;;;;;;;-0.70;85.58;98413.35;102952;1310;22640;-55
2021/11/28 01:56:51;;;;;;;78.30;33.00;;;;;;;-0.68;85.58;98413.02;102929;1317;22932;-56
2021/11/28 01:59:22;;;;;;;76.80;33.80;;;;;;;-0.66;85.69;98410.14;102682;1313;22578;-57
2021/11/28 02:01:53;;;;;;;77.10;32.10;;;;;;;-0.66;85.69;98405.54;102932;1318;24336;-57
2021/11/28 02:04:25;;;;;;;77.70;30.50;;;;;;;-0.66;85.67;98401.98;102698;1318;23267;-57
2021/11/28 02:06:57;;;;;;;67.30;28.20;;;;;;;-0.65;85.60;98401.25;102845;1312;25297;-58
2021/11/28 02:09:28;;;;;;;73.80;31.90;;;;;;;-0.65;85.67;98401.56;102599;1318;25393;-56
2021/11/28 02:11:59;;;;;;;77.80;31.80;;;;;;;-0.65;85.65;98397.57;102663;1317;22744;-58
2021/11/28 02:14:30;;;;;;;71.80;29.30;;;;;;;-0.64;85.70;98397.23;102601;1316;25574;-57
2021/11/28 02:17:01;;;;;;;74.60;32.50;;;;;;;-0.65;85.51;98391.77;102643;1312;24326;-55
2021/11/28 02:19:32;;;;;;;73.60;30.80;;;;;;;-0.65;85.63;98385.67;102738;1312;22567;-55
2021/11/28 02:22:03;;;;;;;75.40;32.00;;;;;;;-0.64;85.68;98386.83;102762;1311;25482;-55
2021/11/28 02:24:34;;;;;;;74.30;31.00;;;;;;;-0.65;85.73;98387.07;102722;1312;22806;-58
2021/11/28 02:27:06;;;;;;;73.30;32.30;;;;;;;-0.64;85.72;98386.20;102620;1312;25448;-57
2021/11/28 02:29:40;;;;;;;74.60;33.70;;;;;;;-0.63;85.72;98387.80;102707;1317;22643;-56
2021/11/28 02:32:12;;;;;;;81.20;34.90;;;;;;;-0.65;85.52;98393.27;102756;1313;22676;-57
2021/11/28 02:34:43;;;;;;;78.70;34.00;;;;;;;-0.65;85.53;98396.31;102945;1312;26662;-57
2021/11/28 02:37:14;;;;;;;82.50;35.70;;;;;;;-0.67;85.50;98398.11;102787;1317;22582;-57
2021/11/28 02:39:45;;;;;;;83.30;35.80;;;;;;;-0.69;85.31;98402.17;102709;1312;22705;-58
2021/11/28 02:42:19;;;;;;;86.60;35.70;;;;;;;-0.71;85.37;98403.36;102737;1312;22555;-57
2021/11/28 02:44:50;;;;;;;82.20;37.30;;;;;;;-0.73;85.15;98406.66;102793;1312;22575;-56
2021/11/28 02:47:23;;;;;;;83.70;35.60;;;;;;;-0.77;85.32;98406.87;102623;1312;25622;-55
2021/11/28 02:49:54;;;;;;;71.80;31.20;;;;;;;-0.80;85.51;98405.81;102586;1313;22755;-55
2021/11/28 02:52:26;;;;;;;73.80;31.50;;;;;;;-0.84;85.49;98402.38;102602;1312;23946;-54
2021/11/28 02:54:57;;;;;;;76.90;33.20;;;;;;;-0.83;85.69;98403.80;102746;1312;23088;-57
2021/11/28 02:57:28;;;;;;;75.30;33.50;;;;;;;-0.85;85.51;98403.29;102631;1312;24468;-55
2021/11/28 02:59:59;;;;;;;88.50;34.10;;;;;;;-0.86;85.39;98399.50;102646;1319;24454;-58
2021/11/28 03:02:30;;;;;;;102.70;40.30;;;;;;;-0.85;85.52;98395.79;102677;1316;24360;-57
2021/11/28 03:05:01;;;;;;;103.90;40.10;;;;;;;-0.83;85.83;98396.34;103046;1313;22580;-55
2021/11/28 03:07:32;;;;;;;117.80;44.80;;;;;;;-0.80;85.84;98388.20;102606;1316;22767;-57
2021/11/28 03:10:04;;;;;;;85.20;36.70;;;;;;;-0.79;85.93;98379.07;102823;1312;25544;-58
2021/11/28 03:12:35;;;;;;;80.40;34.70;;;;;;;-0.77;86.06;98370.77;102768;1312;25101;-56
2021/11/28 03:15:07;;;;;;;84.80;35.40;;;;;;;-0.75;85.93;98368.73;102802;1312;22592;-58
2021/11/28 03:17:38;;;;;;;81.80;36.80;;;;;;;-0.74;85.91;98375.67;102767;1313;22623;-56
2021/11/28 03:20:10;;;;;;;84.50;39.00;;;;;;;-0.75;85.78;98380.42;102663;1312;22606;-57
2021/11/28 03:22:48;;;;;;;84.60;35.80;;;;;;;-0.79;85.74;98393.65;102771;1312;23411;-55
2021/11/28 03:25:21;;;;;;;86.00;38.40;;;;;;;-0.87;85.66;98395.34;102684;1312;22662;-58
2021/11/28 03:27:52;;;;;;;87.30;38.60;;;;;;;-0.93;85.66;98395.63;103019;1312;24955;-56
2021/11/28 03:30:24;;;;;;;92.80;38.90;;;;;;;-0.95;85.76;98394.97;102609;1313;24311;-57
2021/11/28 03:32:56;;;;;;;87.10;37.40;;;;;;;-0.94;85.72;98392.52;102638;1319;26117;-56
2021/11/28 03:35:26;;;;;;;92.00;39.20;;;;;;;-0.94;85.65;98387.73;102654;1312;25485;-54
2021/11/28 03:37:57;;;;;;;94.90;38.80;;;;;;;-0.95;85.52;98385.66;102693;1312;25609;-54
2021/11/28 03:40:29;;;;;;;98.30;40.60;;;;;;;-0.95;85.46;98392.02;102620;1319;22963;-56
2021/11/28 03:43:01;;;;;;;103.30;42.40;;;;;;;-0.96;85.46;98388.70;102667;1312;22641;-57
2021/11/28 03:45:32;;;;;;;100.70;44.20;;;;;;;-0.95;85.48;98398.20;102766;1312;24649;-55
2021/11/28 03:48:04;;;;;;;96.70;40.60;;;;;;;-0.95;85.49;98399.66;102634;1319;22646;-57
2021/11/28 03:50:36;;;;;;;90.30;40.50;;;;;;;-0.94;85.39;98394.73;102698;1319;22684;-57
2021/11/28 03:53:07;;;;;;;113.30;46.40;;;;;;;-0.95;85.44;98390.73;102991;1312;24326;-58
2021/11/28 03:55:39;;;;;;;112.10;47.90;;;;;;;-0.95;85.36;98384.80;102583;1312;22814;-56
2021/11/28 03:58:10;;;;;;;108.70;45.20;;;;;;;-0.96;85.19;98387.60;102680;1312;25612;-57
2021/11/28 04:00:41;;;;;;;106.70;46.00;;;;;;;-1.00;85.19;98387.98;102717;1315;25192;-57
2021/11/28 04:03:13;;;;;;;108.10;44.80;;;;;;;-1.01;85.25;98392.91;102676;1312;22570;-54
2021/11/28 04:05:44;;;;;;;110.10;46.10;;;;;;;-1.02;85.37;98394.31;102710;1317;25695;-56
2021/11/28 04:08:15;;;;;;;101.20;41.80;;;;;;;-1.07;85.35;98389.42;102735;1312;25714;-56
2021/11/28 04:10:46;;;;;;;90.60;39.30;;;;;;;-1.10;85.40;98394.81;102745;1312;25643;-57
2021/11/28 04:13:17;;;;;;;83.20;36.30;;;;;;;-1.12;85.16;98387.38;102618;1312;22618;-54
2021/11/28 04:15:49;;;;;;;95.30;42.60;;;;;;;-1.16;85.06;98386.02;102677;1312;22920;-57
2021/11/28 04:18:20;;;;;;;97.30;40.30;;;;;;;-1.17;85.10;98392.80;102815;1312;24276;-57
2021/11/28 04:20:52;;;;;;;90.60;38.00;;;;;;;-1.18;84.96;98392.13;102672;1318;22661;-56
2021/11/28 04:23:23;;;;;;;98.60;42.40;;;;;;;-1.19;84.81;98382.33;102780;1312;25654;-55
2021/11/28 04:25:54;;;;;;;108.10;43.50;;;;;;;-1.22;84.79;98373.34;102705;1319;24342;-57
2021/11/28 04:28:25;;;;;;;122.00;46.30;;;;;;;-1.23;84.75;98370.83;102731;1312;22645;-54
2021/11/28 04:30:56;;;;;;;119.20;47.60;;;;;;;-1.25;84.64;98363.84;102597;1313;25433;-56
2021/11/28 04:33:28;;;;;;;112.70;46.10;;;;;;;-1.29;84.56;98364.76;102506;1312;22716;-54
2021/11/28 04:35:59;;;;;;;118.70;45.00;;;;;;;-1.33;84.52;98363.88;102596;1313;22900;-57
2021/11/28 04:38:30;;;;;;;106.70;45.80;;;;;;;-1.34;84.95;98365.56;102614;1319;25527;-57
2021/11/28 04:41:01;;;;;;;114.30;46.60;;;;;;;-1.37;85.17;98363.09;102836;1313;23731;-57
2021/11/28 04:43:32;;;;;;;110.70;44.50;;;;;;;-1.38;84.96;98364.29;102643;1312;25488;-56
2021/11/28 04:46:03;;;;;;;104.70;43.70;;;;;;;-1.39;84.77;98362.95;102721;1312;22558;-55
2021/11/28 04:48:34;;;;;;;100.20;38.70;;;;;;;-1.41;84.66;98361.13;102739;1312;22643;-54
2021/11/28 04:51:06;;;;;;;93.50;38.80;;;;;;;-1.43;84.73;98365.19;102711;1315;22787;-57
2021/11/28 04:53:37;;;;;;;89.90;35.70;;;;;;;-1.46;84.66;98367.54;102805;1317;24302;-58
2021/11/28 04:56:09;;;;;;;99.30;40.30;;;;;;;-1.47;84.77;98367.75;102632;1317;22594;-58
2021/11/28 04:58:40;;;;;;;94.40;37.90;;;;;;;-1.48;84.87;98365.43;102800;1317;22614;-55
2021/11/28 05:01:10;;;;;;;93.30;38.80;;;;;;;-1.51;84.48;98367.96;102623;1317;26878;-54
2021/11/28 05:03:41;;;;;;;91.90;40.40;;;;;;;-1.53;84.57;98373.13;102714;1313;22601;-55
2021/11/28 05:06:12;;;;;;;90.50;37.90;;;;;;;-1.57;84.37;98377.48;102600;1317;25903;-56
2021/11/28 05:08:43;;;;;;;91.30;37.20;;;;;;;-1.59;84.52;98378.08;102386;1317;22636;-57
2021/11/28 05:11:15;;;;;;;92.60;36.40;;;;;;;-1.60;84.45;98379.46;102628;1317;25571;-57
2021/11/28 05:13:46;;;;;;;90.30;39.30;;;;;;;-1.63;84.28;98379.46;102768;1312;25598;-56
2021/11/28 05:16:16;;;;;;;104.10;38.90;;;;;;;-1.66;84.32;98381.11;102807;1312;22709;-56
2021/11/28 05:18:47;;;;;;;101.10;39.40;;;;;;;-1.66;84.46;98377.61;102680;1313;22726;-57
2021/11/28 05:21:18;;;;;;;101.80;40.30;;;;;;;-1.67;84.59;98375.60;102803;1312;25471;-54
2021/11/28 05:23:50;;;;;;;101.90;41.40;;;;;;;-1.69;84.23;98386.39;102894;1312;23309;-58
2021/11/28 05:26:22;;;;;;;91.70;36.70;;;;;;;-1.74;84.06;98394.63;102946;1313;25503;-55
2021/11/28 05:28:53;;;;;;;92.10;38.00;;;;;;;-1.78;84.12;98395.61;102826;1317;22737;-55
2021/11/28 05:31:24;;;;;;;86.40;37.80;;;;;;;-1.80;84.21;98397.92;102598;1313;24283;-55
2021/11/28 05:33:56;;;;;;;82.30;35.80;;;;;;;-1.81;84.09;98402.89;102672;1313;26920;-57
2021/11/28 05:36:27;;;;;;;88.50;38.70;;;;;;;-1.85;83.95;98397.63;102789;1312;25743;-57
2021/11/28 05:38:58;;;;;;;80.20;35.60;;;;;;;-1.87;84.14;98395.58;102589;1317;24411;-55
2021/11/28 05:41:31;;;;;;;80.30;36.20;;;;;;;-1.89;83.94;98394.46;102864;1317;22756;-56
2021/11/28 05:44:02;;;;;;;85.90;36.00;;;;;;;-1.91;83.97;98392.73;102720;1312;25634;-56
2021/11/28 05:46:34;;;;;;;79.70;34.50;;;;;;;-1.92;83.87;98399.90;102691;1312;24238;-57
2021/11/28 05:49:05;;;;;;;81.00;34.80;;;;;;;-1.95;83.81;98399.59;102615;1313;22792;-57
2021/11/28 05:51:36;;;;;;;80.60;32.80;;;;;;;-1.99;83.76;98403.38;102970;1312;25687;-54
2021/11/28 05:54:07;;;;;;;83.10;36.10;;;;;;;-2.02;83.63;98405.08;102588;1312;24349;-55
2021/11/28 05:56:38;;;;;;;85.20;36.00;;;;;;;-2.06;83.68;98405.19;102600;1319;22694;-56
2021/11/28 05:59:09;;;;;;;87.30;37.10;;;;;;;-2.06;83.77;98403.45;102521;1313;22767;-55
2021/11/28 06:01:40;;;;;;;88.10;37.30;;;;;;;-2.07;83.75;98401.32;102573;1312;22589;-57
2021/11/28 06:04:13;;;;;;;110.90;47.40;;;;;;;-2.11;83.72;98402.77;102531;1312;22738;-56
2021/11/28 06:06:45;;;;;;;107.70;44.80;;;;;;;-2.13;83.83;98399.48;102635;1312;24266;-55
2021/11/28 06:09:16;;;;;;;107.60;45.90;;;;;;;-2.14;84.05;98401.48;102674;1313;25597;-57
2021/11/28 06:11:47;;;;;;;106.00;42.90;;;;;;;-2.14;84.04;98401.54;102706;1317;25707;-56
2021/11/28 06:14:18;;;;;;;95.70;39.60;;;;;;;-2.15;83.91;98404.16;102706;1313;25676;-56
2021/11/28 06:16:48;;;;;;;95.30;39.70;;;;;;;-2.17;83.92;98404.84;102551;1312;25704;-55
2021/11/28 06:19:19;;;;;;;104.70;41.20;;;;;;;-2.17;84.04;98410.16;102566;1312;25667;-55
2021/11/28 06:21:51;;;;;;;109.00;43.00;;;;;;;-2.19;83.91;98414.33;102587;1312;25598;-56
2021/11/28 06:24:22;;;;;;;107.30;44.40;;;;;;;-2.20;84.36;98411.41;102728;1312;25684;-54
2021/11/28 06:26:53;;;;;;;97.00;42.60;;;;;;;-2.21;84.52;98401.58;102587;1317;24922;-57
2021/11/28 06:29:24;;;;;;;95.40;41.70;;;;;;;-2.21;84.26;98401.51;102688;1312;25542;-57
2021/11/28 06:31:55;;;;;;;93.20;38.60;;;;;;;-2.22;84.22;98398.03;102604;1312;25674;-56
2021/11/28 06:34:26;;;;;;;94.40;41.20;;;;;;;-2.23;84.14;98401.02;102828;1312;22753;-55
2021/11/28 06:36:57;;;;;;;92.10;39.70;;;;;;;-2.24;83.95;98401.30;102737;1312;24227;-57
2021/11/28 06:39:28;;;;;;;94.70;39.50;;;;;;;-2.24;84.04;98399.02;102689;1313;25656;-55
2021/11/28 06:41:59;;;;;;;102.50;40.00;;;;;;;-2.26;83.92;98400.71;102610;1316;22788;-57
2021/11/28 06:44:30;;;;;;;93.90;39.40;;;;;;;-2.27;83.90;98401.70;102646;1312;25686;-55
2021/11/28 06:47:01;;;;;;;100.20;42.70;;;;;;;-2.26;84.13;98401.27;102608;1312;22731;-57
2021/11/28 06:49:32;;;;;;;95.20;40.40;;;;;;;-2.24;84.35;98403.82;102682;1316;24270;-57
2021/11/28 06:52:04;;;;;;;99.30;40.30;;;;;;;-2.24;84.48;98417.48;102496;1315;22755;-54
2021/11/28 06:54:35;;;;;;;103.80;42.60;;;;;;;-2.26;84.35;98421.89;102615;1312;25614;-56
2021/11/28 06:57:07;;;;;;;88.20;35.40;;;;;;;-2.27;84.38;98422.86;102765;1312;22759;-56
2021/11/28 06:59:39;;;;;;;87.80;36.60;;;;;;;-2.27;84.89;98419.97;102748;1319;24569;-55
2021/11/28 07:02:10;;;;;;;78.70;33.50;;;;;;;-2.28;84.95;98419.78;102672;1312;25750;-55
2021/11/28 07:04:42;;;;;;;82.60;35.80;;;;;;;-2.26;84.79;98419.96;102713;1312;24407;-57
2021/11/28 07:07:13;;;;;;;80.40;34.90;;;;;;;-2.26;84.66;98418.00;102780;1312;23210;-55
2021/11/28 07:09:44;;;;;;;74.50;31.60;;;;;;;-2.23;84.75;98415.80;102570;1312;24330;-57
2021/11/28 07:12:15;;;;;;;82.40;35.90;;;;;;;-2.21;84.65;98419.18;102751;1312;23066;-56
2021/11/28 07:14:47;;;;;;;66.10;30.40;;;;;;;-2.18;84.84;98411.58;102610;1312;22734;-56
2021/11/28 07:17:18;;;;;;;72.50;31.50;;;;;;;-2.15;84.85;98411.40;102803;1313;22640;-54
2021/11/28 07:19:49;;;;;;;72.40;31.90;;;;;;;-2.12;84.92;98412.50;102714;1312;22929;-56
2021/11/28 07:22:20;;;;;;;76.90;32.90;;;;;;;-2.09;84.95;98419.52;102524;1312;24013;-56
2021/11/28 07:24:52;;;;;;;71.10;30.30;;;;;;;-2.07;84.82;98425.61;102754;1312;22710;-56
2021/11/28 07:27:24;;;;;;;79.70;31.90;;;;;;;-2.04;85.01;98432.48;102793;1317;25821;-58
2021/11/28 07:29:57;;;;;;;70.20;30.30;;;;;;;-2.03;85.09;98431.98;102984;1312;25520;-58
2021/11/28 07:32:28;;;;;;;95.80;39.80;;;;;;;-2.02;85.14;98438.25;102941;1312;22717;-57
2021/11/28 07:35:00;;;;;;;100.00;44.60;;;;;;;-2.01;85.28;98435.95;102643;1312;22668;-58
2021/11/28 07:37:32;;;;;;;106.70;49.50;;;;;;;-1.97;85.35;98444.19;102658;1312;22643;-56
2021/11/28 07:40:04;;;;;;;128.60;56.70;;;;;;;-1.92;85.50;98451.94;102766;1318;22670;-55
2021/11/28 07:42:35;;;;;;;109.10;48.30;;;;;;;-1.89;85.61;98458.95;102720;1312;22598;-57
2021/11/28 07:45:10;;;;;;;114.40;53.30;;;;;;;-1.86;85.73;98455.40;102608;1313;22794;-58
2021/11/28 07:47:42;;;;;;;116.70;54.80;;;;;;;-1.84;85.75;98451.04;102751;1312;22655;-58
2021/11/28 07:50:13;;;;;;;102.20;50.00;;;;;;;-1.79;85.82;98447.00;102673;1312;25576;-57
2021/11/28 07:52:44;;;;;;;104.60;48.30;;;;;;;-1.76;85.93;98450.89;102653;1316;25582;-55
2021/11/28 07:55:16;;;;;;;92.20;42.60;;;;;;;-1.73;85.97;98455.68;102728;1312;22716;-58
2021/11/28 07:57:48;;;;;;;90.50;39.20;;;;;;;-1.69;85.98;98460.88;102779;1313;25561;-57
2021/11/28 08:00:20;;;;;;;89.30;42.80;;;;;;;-1.66;85.99;98462.81;102870;1312;22601;-58
2021/11/28 08:02:52;;;;;;;94.60;43.20;;;;;;;-1.61;86.03;98468.28;102827;1312;26739;-59
2021/11/28 08:05:24;;;;;;;90.20;45.30;;;;;;;-1.56;86.07;98471.80;102859;1317;22912;-59
2021/11/28 08:07:56;;;;;;;93.60;44.50;;;;;;;-1.53;86.04;98473.27;104028;1312;25464;-59
2021/11/28 08:10:28;;;;;;;104.40;47.10;;;;;;;-1.48;86.11;98474.83;102872;1313;24268;-59
2021/11/28 08:13:00;;;;;;;97.20;46.10;;;;;;;-1.43;86.08;98478.11;104041;1313;24256;-61
2021/11/28 08:15:32;;;;;;;109.30;50.20;;;;;;;-1.40;86.08;98480.57;103183;1313;24038;-61
2021/11/28 08:18:04;;;;;;;117.20;53.90;;;;;;;-1.37;86.12;98479.77;103201;1313;22556;-60
2021/11/28 08:20:36;;;;;;;115.70;55.00;;;;;;;-1.33;86.13;98483.95;103134;1312;22610;-62
2021/11/28 08:23:08;;;;;;;122.30;58.30;;;;;;;-1.29;86.25;98482.47;103208;1312;26188;-59
2021/11/28 08:25:40;;;;;;;125.40;59.20;;;;;;;-1.25;86.32;98472.41;103202;1312;24073;-59
2021/11/28 08:28:12;;;;;;;118.30;55.30;;;;;;;-1.21;86.35;98467.19;103147;1313;22751;-57
2021/11/28 08:30:44;;;;;;;127.80;61.30;;;;;;;-1.19;86.36;98458.10;104464;1313;22776;-57
2021/11/28 08:33:16;;;;;;;122.70;60.20;;;;;;;-1.15;86.43;98463.84;103046;1315;22873;-58
2021/11/28 08:35:48;;;;;;;132.10;64.10;;;;;;;-1.10;86.51;98461.63;103046;1316;22778;-58
2021/11/28 08:38:21;;;;;;;169.90;73.10;;;;;;;-1.05;86.50;98454.33;103059;1312;24548;-58
2021/11/28 08:40:57;;;;;;;256.90;110.00;;;;;;;-1.00;86.65;98444.15;103112;1313;22626;-57
2021/11/28 08:43:30;;;;;;;264.80;117.20;;;;;;;-0.97;86.64;98443.88;103114;1312;24246;-59
2021/11/28 08:46:01;;;;;;;200.90;90.50;;;;;;;-0.94;86.54;98443.31;103079;1312;22646;-59
2021/11/28 08:48:32;;;;;;;191.60;87.10;;;;;;;-0.91;86.64;98441.23;103175;1312;24227;-57
2021/11/28 08:51:05;;;;;;;148.90;70.60;;;;;;;-0.86;86.73;98445.08;102995;1315;23160;-57
2021/11/28 08:53:36;;;;;;;125.60;57.90;;;;;;;-0.82;86.73;98443.98;103111;1305;24277;-56
2021/11/28 08:56:09;;;;;;;104.80;47.30;;;;;;;-0.79;86.78;98437.70;103109;1312;26098;-58
2021/11/28 08:58:40;;;;;;;95.60;44.10;;;;;;;-0.75;86.90;98432.88;103076;1312;22539;-58
2021/11/28 09:01:12;;;;;;;89.60;40.70;;;;;;;-0.71;86.81;98439.13;103315;1313;35933;-62
2021/11/28 09:03:44;;;;;;;124.40;58.40;;;;;;;-0.67;86.93;98445.30;102619;1315;25213;-60
2021/11/28 09:06:16;;;;;;;101.30;49.00;;;;;;;-0.63;86.85;98447.70;102851;1319;25883;-61
2021/11/28 09:08:48;;;;;;;95.80;46.30;;;;;;;-0.60;86.91;98442.72;102879;1315;22640;-64
2021/11/28 09:11:19;;;;;;;108.90;51.00;;;;;;;-0.57;87.02;98446.22;102798;1315;27798;-64
2021/11/28 09:13:50;;;;;;;109.90;60.30;;;;;;;-0.56;86.99;98453.98;102787;1316;22591;-66
2021/11/28 09:16:22;;;;;;;129.10;70.40;;;;;;;-0.54;86.98;98450.27;102872;1315;23147;-70
2021/11/28 09:18:57;;;;;;;151.30;76.40;;;;;;;-0.52;87.20;98438.81;103624;1315;22587;-69
2021/11/28 09:21:28;;;;;;;163.90;88.30;;;;;;;-0.47;87.21;98444.02;103474;1315;22606;-66
2021/11/28 09:26:48;;;;;;;157.00;76.70;;;;;;;-0.41;87.05;98446.37;103208;1321;22593;-67
2021/11/28 09:29:20;;;;;;;138.90;68.10;;;;;;;-0.38;86.97;98442.58;102731;1315;25343;-67
2021/11/28 09:31:52;;;;;;;123.80;62.60;;;;;;;-0.36;86.99;98443.60;102527;1316;25339;-67
2021/11/28 09:34:26;;;;;;;129.20;61.30;;;;;;;-0.33;87.11;98439.65;102722;1315;24303;-66
2021/11/28 09:36:59;;;;;;;147.90;68.40;;;;;;;-0.31;87.18;98439.13;103742;1316;22561;-68
2021/11/28 09:39:31;;;;;;;152.30;71.00;;;;;;;-0.29;87.23;98440.69;105624;1318;25694;-67
2021/11/28 09:42:06;;;;;;;150.70;72.10;;;;;;;-0.26;87.24;98434.39;102645;1315;22585;-66
2021/11/28 09:44:41;;;;;;;147.60;71.70;;;;;;;-0.23;87.18;98420.54;102726;1319;25260;-66
2021/11/28 09:47:13;;;;;;;138.90;68.50;;;;;;;-0.19;87.27;98412.53;102652;1315;25586;-67
2021/11/28 09:49:46;;;;;;;136.50;65.40;;;;;;;-0.16;87.34;98412.59;103038;1319;26801;-66
2021/11/28 09:52:21;;;;;;;116.20;56.90;;;;;;;-0.13;87.31;98413.27;102608;1315;22566;-67
2021/11/28 09:54:57;;;;;;;122.80;53.50;;;;;;;-0.12;87.13;98411.50;102865;1315;22654;-67
2021/11/28 09:57:30;;;;;;;120.00;52.20;;;;;;;-0.10;87.21;98406.19;102760;1315;22595;-66
2021/11/28 10:00:01;;;;;;;117.30;51.00;;;;;;;-0.08;87.16;98406.09;102684;1315;23854;-66
2021/11/28 10:02:35;;;;;;;106.40;48.40;;;;;;;-0.04;87.26;98408.61;102942;1318;22583;-66
2021/11/28 10:05:10;;;;;;;88.10;39.40;;;;;;;-0.01;87.20;98404.23;102735;1315;24218;-66
2021/11/28 10:07:44;;;;;;;91.20;41.30;;;;;;;0.00;87.02;98402.41;102896;1315;22572;-66
2021/11/28 10:10:18;;;;;;;86.80;40.90;;;;;;;0.03;87.17;98400.42;102591;1315;25463;-67
2021/11/28 10:12:52;;;;;;;81.80;39.40;;;;;;;0.04;87.20;98394.52;102710;1315;22726;-66
2021/11/28 10:15:26;;;;;;;80.40;38.00;;;;;;;0.07;87.34;98392.73;102692;1315;22574;-66
2021/11/28 10:17:58;;;;;;;78.60;39.40;;;;;;;0.10;87.22;98391.77;102683;1315;22598;-66
2021/11/28 10:20:30;;;;;;;84.80;38.70;;;;;;;0.10;87.03;98387.77;102871;1316;24445;-66
2021/11/28 10:23:02;;;;;;;82.10;38.10;;;;;;;0.09;87.21;98386.13;102671;1315;24442;-66
2021/11/28 10:25:34;;;;;;;85.30;39.80;;;;;;;0.12;87.32;98384.06;102605;1315;22652;-68
2021/11/28 10:28:10;;;;;;;99.10;47.90;;;;;;;0.16;87.35;98380.31;102688;1322;26935;-67
2021/11/28 10:30:44;;;;;;;94.60;44.40;;;;;;;0.18;87.40;98377.16;102816;1315;22662;-68
2021/11/28 10:33:19;;;;;;;221.30;124.40;;;;;;;0.19;87.27;98376.02;102795;1316;25484;-67
2021/11/28 10:36:05;;;;;;;358.20;206.20;;;;;;;0.21;87.59;98374.84;102634;1316;24330;-66
2021/11/28 10:38:40;;;;;;;134.00;65.50;;;;;;;0.20;87.29;98367.66;102734;1315;22603;-67
2021/11/28 10:41:23;;;;;;;111.30;53.30;;;;;;;0.17;87.23;98370.75;102641;1319;24107;-66
2021/11/28 10:43:55;;;;;;;112.20;53.50;;;;;;;0.19;87.41;98375.02;102737;1317;25377;-66
2021/11/28 10:46:30;;;;;;;118.70;52.80;;;;;;;0.21;87.33;98373.98;102678;1315;22574;-66
2021/11/28 10:49:11;;;;;;;108.80;53.00;;;;;;;0.22;87.31;98374.56;103227;1315;25537;-66
2021/11/28 10:51:45;;;;;;;114.80;54.90;;;;;;;0.21;87.27;98369.91;102768;1316;24270;-66
2021/11/28 10:54:31;;;;;;;116.00;56.80;;;;;;;0.23;87.44;98370.58;102966;1317;22647;-67
2021/11/28 10:57:23;;;;;;;92.80;41.00;;;;;;;0.21;87.36;98368.08;102871;1322;22574;-66
2021/11/28 11:00:00;;;;;;;78.80;34.20;;;;;;;0.18;87.30;98369.31;103002;1319;22579;-66
2021/11/28 11:02:34;;;;;;;82.40;38.20;;;;;;;0.15;87.41;98365.23;102992;1315;24332;-65
2021/11/28 11:05:09;;;;;;;73.00;33.30;;;;;;;0.10;87.33;98363.69;102721;1318;24271;-66
2021/11/28 11:07:50;;;;;;;67.90;32.00;;;;;;;0.07;87.42;98364.98;102808;1315;25526;-67
2021/11/28 11:10:25;;;;;;;71.80;31.40;;;;;;;0.04;87.56;98371.76;102621;1315;24006;-66
2021/11/28 11:12:57;;;;;;;75.30;33.60;;;;;;;0.00;87.62;98375.52;102711;1319;22644;-66
2021/11/28 11:15:36;;;;;;;83.20;36.80;;;;;;;-0.05;87.62;98372.06;102629;1316;22594;-66
2021/11/28 11:18:09;;;;;;;74.40;34.60;;;;;;;-0.09;87.72;98372.45;102664;1316;24020;-66
2021/11/28 11:20:43;;;;;;;84.50;36.60;;;;;;;-0.11;87.99;98368.55;102612;1315;23191;-66
2021/11/28 11:23:40;;;;;;;81.20;36.80;;;;;;;-0.14;88.04;98367.61;102794;1315;25351;-66
2021/11/28 11:26:17;;;;;;;80.20;37.10;;;;;;;-0.15;88.18;98367.10;102738;1315;23048;-66
2021/11/28 11:29:10;;;;;;;94.50;43.40;;;;;;;-0.15;88.28;98362.49;102753;1315;22808;-66
2021/11/28 11:31:43;;;;;;;96.40;42.10;;;;;;;-0.14;88.37;98356.03;102672;1315;24343;-68
2021/11/28 11:34:27;;;;;;;88.40;41.30;;;;;;;-0.14;88.43;98355.85;102832;1315;25359;-68